Time;durP1;ratioP1;P1;durP2;ratioP2;P2;SDS_P1;SDS_P2;PMS_P1;PMS_P2;Temp;Humidity;BMP_temperature;BMP_pressure;BME280_temperature;BME280_humidity;BME280_pressure;Samples;Min_cycle;Max_cycle;Signal;HPM_P1;HPM_P2
2023/10/29 00:01:41;;;;;;;3.20;1.37;;;15.40;99.90;;;;;;4975412;28;20168;-73
2023/10/29 00:04:06;;;;;;;3.73;1.50;;;15.40;99.90;;;;;;4975058;28;20628;-73
2023/10/29 00:06:32;;;;;;;5.23;2.13;;;15.40;99.90;;;;;;4975420;28;20218;-73
2023/10/29 00:08:58;;;;;;;1.63;1.10;;;15.40;99.90;;;;;;4975319;28;20636;-74
2023/10/29 00:11:23;;;;;;;2.47;2.03;;;15.40;99.90;;;;;;4975224;28;20651;-72
2023/10/29 00:13:49;;;;;;;2.67;1.43;;;15.40;99.90;;;;;;4975273;28;20211;-73
2023/10/29 00:16:14;;;;;;;1.53;1.30;;;15.40;99.90;;;;;;4975197;28;20176;-72
2023/10/29 00:18:41;;;;;;;1.43;1.00;;;15.30;99.90;;;;;;4974803;28;20656;-73
2023/10/29 00:21:06;;;;;;;1.37;1.00;;;15.30;99.90;;;;;;4975285;28;20226;-72
2023/10/29 00:23:33;;;;;;;2.00;1.00;;;15.30;99.90;;;;;;4973569;28;20175;-72
2023/10/29 00:25:58;;;;;;;1.30;1.00;;;15.30;99.90;;;;;;4975223;28;20267;-71
2023/10/29 00:28:25;;;;;;;2.63;1.37;;;15.30;99.90;;;;;;4975020;28;20593;-71
2023/10/29 00:30:52;;;;;;;3.17;0.90;;;15.30;99.90;;;;;;4974935;28;20544;-72
2023/10/29 00:33:19;;;;;;;2.87;1.00;;;15.20;99.90;;;;;;4974445;28;20230;-71
2023/10/29 00:35:44;;;;;;;1.10;1.00;;;15.20;99.90;;;;;;4974981;28;20632;-71
2023/10/29 00:38:10;;;;;;;1.40;0.90;;;15.10;99.90;;;;;;4973478;28;20180;-71
2023/10/29 00:40:39;;;;;;;2.50;1.10;;;15.20;99.90;;;;;;4974706;28;20175;-72
2023/10/29 00:43:05;;;;;;;0.87;0.70;;;15.10;99.90;;;;;;4974817;28;20222;-71
2023/10/29 00:45:31;;;;;;;1.20;0.80;;;15.10;99.90;;;;;;4974749;28;20168;-71
2023/10/29 00:47:58;;;;;;;1.13;0.63;;;15.10;99.90;;;;;;4974427;28;20204;-72
2023/10/29 00:50:24;;;;;;;0.70;0.70;;;15.10;99.90;;;;;;4974578;28;20188;-72
2023/10/29 00:52:51;;;;;;;1.10;0.60;;;15.10;99.90;;;;;;4974587;28;20222;-71
2023/10/29 00:55:17;;;;;;;1.53;0.80;;;15.10;99.90;;;;;;4974610;28;20180;-71
2023/10/29 00:57:43;;;;;;;0.63;0.60;;;15.10;99.90;;;;;;4974953;28;20203;-72
2023/10/29 01:00:10;;;;;;;0.87;0.70;;;15.10;99.90;;;;;;4974619;28;20585;-72
2023/10/29 01:02:36;;;;;;;1.67;0.70;;;15.10;99.90;;;;;;4974066;28;20259;-73
2023/10/29 01:05:04;;;;;;;1.30;0.80;;;15.10;99.90;;;;;;4974480;28;20255;-73
2023/10/29 01:07:31;;;;;;;2.50;0.70;;;15.10;99.90;;;;;;4974530;28;20172;-72
2023/10/29 01:09:58;;;;;;;1.57;0.87;;;15.00;99.90;;;;;;4974328;28;20656;-72
2023/10/29 01:12:27;;;;;;;1.07;0.73;;;14.90;99.90;;;;;;4974504;28;20203;-72
2023/10/29 01:14:52;;;;;;;2.53;0.63;;;14.90;99.90;;;;;;4974237;28;20226;-73
2023/10/29 01:17:20;;;;;;;1.13;0.97;;;14.90;99.90;;;;;;4973922;28;20176;-72
2023/10/29 01:19:46;;;;;;;2.13;0.90;;;14.80;99.90;;;;;;4974432;28;20202;-72
2023/10/29 01:22:11;;;;;;;1.60;0.90;;;14.70;99.90;;;;;;4973146;28;20180;-72
2023/10/29 01:24:39;;;;;;;1.33;0.90;;;14.70;99.90;;;;;;4974385;28;20583;-74
2023/10/29 01:27:05;;;;;;;1.43;1.00;;;14.60;99.90;;;;;;4974407;28;20187;-73
2023/10/29 01:29:30;;;;;;;1.20;0.90;;;14.60;99.90;;;;;;4974467;28;20172;-72
2023/10/29 01:31:56;;;;;;;0.90;0.90;;;14.50;99.90;;;;;;4972577;28;20532;-73
2023/10/29 01:34:22;;;;;;;2.03;1.00;;;14.50;99.90;;;;;;4974374;28;20170;-71
2023/10/29 01:36:47;;;;;;;1.60;0.80;;;14.50;99.90;;;;;;4974460;28;20574;-72
2023/10/29 01:39:13;;;;;;;0.90;0.90;;;14.50;99.90;;;;;;4974139;28;20508;-72
2023/10/29 01:41:39;;;;;;;0.90;0.90;;;14.60;99.90;;;;;;4974457;28;20643;-71
2023/10/29 01:44:05;;;;;;;1.10;0.73;;;14.60;99.90;;;;;;4974122;28;20214;-72
2023/10/29 01:46:30;;;;;;;0.97;0.80;;;14.60;99.90;;;;;;4973867;28;20216;-72
2023/10/29 01:48:56;;;;;;;1.77;1.03;;;14.60;99.90;;;;;;4974111;28;20176;-73
2023/10/29 01:51:22;;;;;;;1.07;0.87;;;14.50;99.90;;;;;;4972738;28;20187;-72
2023/10/29 01:53:47;;;;;;;0.90;0.90;;;14.50;99.90;;;;;;4973996;28;20212;-71
2023/10/29 01:56:13;;;;;;;1.13;0.80;;;14.60;99.90;;;;;;4974270;28;20223;-72
2023/10/29 01:58:38;;;;;;;2.37;1.10;;;14.60;99.90;;;;;;4973977;28;20235;-72
2023/10/29 02:01:11;;;;;;;0.77;0.70;;;14.60;99.90;;;;;;4973692;28;20188;-71
2023/10/29 02:03:37;;;;;;;0.90;0.90;;;14.70;99.90;;;;;;4974008;28;20176;-72
2023/10/29 02:06:04;;;;;;;0.87;0.70;;;14.70;99.90;;;;;;4972773;28;20183;-72
2023/10/29 02:08:30;;;;;;;1.20;0.93;;;14.90;99.90;;;;;;4973991;28;20206;-72
2023/10/29 02:10:55;;;;;;;1.20;0.90;;;14.80;99.90;;;;;;4972700;28;20628;-72
2023/10/29 02:13:21;;;;;;;1.00;0.90;;;14.90;99.90;;;;;;4973753;28;20219;-72
2023/10/29 02:15:46;;;;;;;0.77;0.63;;;14.90;99.90;;;;;;4972585;28;20182;-71
2023/10/29 02:18:12;;;;;;;1.20;0.60;;;15.00;99.90;;;;;;4977390;28;20193;-72
2023/10/29 02:20:38;;;;;;;1.07;0.60;;;15.00;99.90;;;;;;4977525;28;20176;-72
2023/10/29 02:23:04;;;;;;;2.50;0.90;;;15.00;99.90;;;;;;4976070;28;20651;-72
2023/10/29 02:25:29;;;;;;;1.23;0.80;;;15.10;99.90;;;;;;4975961;28;20584;-72
2023/10/29 02:27:55;;;;;;;2.33;0.90;;;15.10;99.90;;;;;;4977142;28;20635;-72
2023/10/29 02:30:20;;;;;;;1.23;0.90;;;15.10;99.90;;;;;;4976863;28;20191;-73
2023/10/29 02:32:46;;;;;;;2.53;0.90;;;15.10;99.90;;;;;;4975920;28;20295;-71
2023/10/29 02:35:12;;;;;;;1.33;0.93;;;15.10;99.90;;;;;;4977198;28;20528;-71
2023/10/29 02:37:37;;;;;;;1.67;0.83;;;15.10;99.90;;;;;;4976989;28;20180;-71
2023/10/29 02:40:03;;;;;;;1.87;1.00;;;15.20;99.90;;;;;;4976990;28;20215;-72
2023/10/29 02:42:29;;;;;;;1.10;0.90;;;15.20;99.90;;;;;;4977041;28;20191;-71
2023/10/29 02:44:55;;;;;;;2.53;1.00;;;15.20;99.90;;;;;;4976780;28;20207;-72
2023/10/29 02:47:20;;;;;;;2.70;1.10;;;15.10;99.90;;;;;;4975762;28;20176;-72
2023/10/29 02:49:46;;;;;;;2.20;1.00;;;15.10;99.90;;;;;;4976884;28;20279;-71
2023/10/29 02:52:12;;;;;;;2.63;1.20;;;15.10;99.90;;;;;;4976842;28;20262;-70
2023/10/29 02:54:37;;;;;;;0.80;0.80;;;15.10;99.90;;;;;;4976943;28;20184;-72
2023/10/29 02:57:03;;;;;;;0.67;0.60;;;15.10;99.90;;;;;;4976640;28;20172;-71
2023/10/29 02:59:29;;;;;;;1.03;0.90;;;15.10;99.90;;;;;;4976402;28;20172;-71
2023/10/29 03:01:55;;;;;;;2.97;0.97;;;15.00;99.90;;;;;;4976855;28;20172;-72
2023/10/29 03:04:21;;;;;;;2.03;0.90;;;14.90;99.90;;;;;;4976713;28;20262;-72
2023/10/29 03:06:46;;;;;;;1.97;1.10;;;14.90;99.90;;;;;;4976594;28;20172;-71
2023/10/29 03:09:13;;;;;;;1.83;1.10;;;14.80;99.90;;;;;;4976559;28;20230;-72
2023/10/29 03:11:38;;;;;;;1.97;0.80;;;14.80;99.90;;;;;;4976482;28;20160;-72
2023/10/29 03:14:04;;;;;;;2.93;1.07;;;14.80;99.90;;;;;;4975024;28;20226;-72
2023/10/29 03:16:30;;;;;;;1.73;0.90;;;14.80;99.90;;;;;;4976438;28;20271;-72
2023/10/29 03:18:55;;;;;;;4.13;1.17;;;14.80;99.90;;;;;;4976299;28;20584;-72
2023/10/29 03:21:21;;;;;;;3.23;1.10;;;14.80;99.90;;;;;;4976323;28;20172;-70
2023/10/29 03:23:47;;;;;;;2.03;1.00;;;14.80;99.90;;;;;;4975941;28;20639;-72
2023/10/29 03:26:12;;;;;;;1.03;0.97;;;14.80;99.90;;;;;;4976254;28;20171;-72
2023/10/29 03:28:39;;;;;;;3.23;1.10;;;14.80;99.90;;;;;;4974670;28;20529;-73
2023/10/29 03:31:15;;;;;;;1.50;1.00;;;14.80;99.90;;;;;;4976139;28;20223;-71
2023/10/29 03:33:41;;;;;;;3.23;1.20;;;14.90;99.90;;;;;;4975964;28;20299;-71
2023/10/29 03:36:08;;;;;;;4.37;1.07;;;14.90;99.90;;;;;;4975982;28;20251;-71
2023/10/29 03:38:34;;;;;;;3.23;1.20;;;14.90;99.90;;;;;;4976016;28;20175;-72
2023/10/29 03:40:59;;;;;;;1.17;0.80;;;15.00;99.90;;;;;;4974528;28;20180;-72
2023/10/29 03:43:25;;;;;;;3.27;1.17;;;15.10;99.90;;;;;;4975602;28;20246;-71
2023/10/29 03:45:51;;;;;;;4.97;1.43;;;15.00;99.90;;;;;;4975858;28;20541;-73
2023/10/29 03:48:16;;;;;;;4.60;1.30;;;15.10;99.90;;;;;;4974508;28;20184;-71
2023/10/29 03:50:42;;;;;;;5.63;1.30;;;15.00;99.90;;;;;;4975546;28;20192;-73
2023/10/29 03:53:08;;;;;;;6.93;1.27;;;14.90;99.90;;;;;;4975629;28;20243;-72
2023/10/29 03:55:37;;;;;;;3.97;1.20;;;14.80;99.90;;;;;;4975773;28;20191;-71
2023/10/29 03:58:03;;;;;;;4.47;1.07;;;14.60;99.90;;;;;;4975314;28;20179;-72
2023/10/29 04:00:29;;;;;;;9.47;1.43;;;14.60;99.90;;;;;;4975388;28;20179;-71
2023/10/29 04:02:55;;;;;;;4.37;1.30;;;14.50;99.90;;;;;;4975516;28;20568;-71
2023/10/29 04:05:21;;;;;;;3.50;1.50;;;14.50;99.90;;;;;;4975506;28;20172;-71
2023/10/29 04:07:47;;;;;;;5.30;1.57;;;14.60;99.90;;;;;;4974103;28;20547;-72
2023/10/29 04:10:13;;;;;;;5.97;1.47;;;14.60;99.90;;;;;;4975247;28;20234;-72
2023/10/29 04:12:39;;;;;;;2.23;1.17;;;14.70;99.90;;;;;;4973624;28;20587;-71
2023/10/29 04:15:05;;;;;;;2.67;1.30;;;14.70;99.90;;;;;;4975262;28;20176;-72
2023/10/29 04:17:31;;;;;;;5.63;1.40;;;14.70;99.90;;;;;;4975112;28;20172;-72
2023/10/29 04:19:58;;;;;;;4.83;1.13;;;14.70;99.90;;;;;;4974807;28;20180;-72
2023/10/29 04:22:23;;;;;;;4.83;1.27;;;14.80;99.90;;;;;;4974961;28;20260;-71
2023/10/29 04:24:49;;;;;;;6.97;1.40;;;14.90;99.90;;;;;;4974549;28;20310;-71
2023/10/29 04:27:15;;;;;;;8.37;1.60;;;15.00;99.90;;;;;;4974626;28;20176;-72
2023/10/29 04:29:41;;;;;;;7.20;1.70;;;15.00;99.90;;;;;;4974535;28;20168;-72
2023/10/29 04:32:06;;;;;;;7.23;1.70;;;15.00;99.90;;;;;;4974557;28;20168;-71
2023/10/29 04:34:32;;;;;;;7.27;1.57;;;15.00;99.90;;;;;;4974768;28;20258;-72
2023/10/29 04:36:58;;;;;;;2.97;1.33;;;15.00;99.90;;;;;;4974693;28;20172;-72
2023/10/29 04:39:24;;;;;;;8.20;1.37;;;14.90;99.90;;;;;;4972621;28;20176;-71
2023/10/29 04:41:50;;;;;;;10.57;1.60;;;14.90;99.90;;;;;;4974690;28;20179;-71
2023/10/29 04:44:16;;;;;;;8.20;1.47;;;15.00;99.90;;;;;;4974378;28;20523;-72
2023/10/29 04:46:41;;;;;;;7.80;1.87;;;15.00;99.90;;;;;;4974674;28;20636;-72
2023/10/29 04:49:07;;;;;;;4.47;1.40;;;15.00;99.90;;;;;;4974314;28;20164;-72
2023/10/29 04:51:33;;;;;;;7.30;1.63;;;15.00;99.90;;;;;;4974357;28;20187;-72
2023/10/29 04:53:59;;;;;;;8.33;2.07;;;14.90;99.90;;;;;;4974127;28;20207;-72
2023/10/29 04:56:25;;;;;;;8.53;1.43;;;15.00;99.90;;;;;;4974711;28;20187;-72
2023/10/29 04:58:51;;;;;;;3.63;1.50;;;14.90;99.90;;;;;;4974390;28;20180;-72
2023/10/29 05:01:17;;;;;;;7.97;1.50;;;14.90;99.90;;;;;;4974457;28;20255;-72
2023/10/29 05:03:44;;;;;;;4.27;1.50;;;14.80;99.90;;;;;;4974233;28;20164;-72
2023/10/29 05:06:20;;;;;;;6.03;1.40;;;14.70;99.90;;;;;;4974223;28;20200;-72
2023/10/29 05:08:46;;;;;;;3.67;1.53;;;14.70;99.90;;;;;;4974009;28;20272;-72
2023/10/29 05:11:12;;;;;;;7.00;1.67;;;14.70;99.90;;;;;;4974311;28;20176;-71
2023/10/29 05:13:38;;;;;;;5.83;1.70;;;14.70;99.90;;;;;;4972896;28;20215;-72
2023/10/29 05:16:04;;;;;;;4.67;1.90;;;14.70;99.90;;;;;;4974206;28;20242;-72
2023/10/29 05:18:30;;;;;;;6.40;1.90;;;14.70;99.90;;;;;;4974062;28;20176;-73
2023/10/29 05:20:55;;;;;;;9.13;1.87;;;14.70;99.90;;;;;;4974015;28;20172;-73
2023/10/29 05:23:21;;;;;;;5.57;1.87;;;14.70;99.90;;;;;;4973843;28;20211;-73
2023/10/29 05:25:47;;;;;;;9.10;1.80;;;14.70;99.90;;;;;;4974201;28;20183;-73
2023/10/29 05:28:13;;;;;;;9.73;2.33;;;14.70;99.90;;;;;;4974246;28;20172;-73
2023/10/29 05:30:39;;;;;;;7.33;1.87;;;14.60;99.90;;;;;;4972766;28;20176;-72
2023/10/29 05:33:05;;;;;;;7.43;2.10;;;14.60;99.90;;;;;;4974208;28;20199;-72
2023/10/29 05:35:30;;;;;;;7.57;1.83;;;14.60;99.90;;;;;;4973906;28;20707;-71
2023/10/29 05:37:56;;;;;;;10.03;2.00;;;14.50;99.90;;;;;;4973852;28;20172;-71
2023/10/29 05:40:22;;;;;;;6.17;1.50;;;14.40;99.90;;;;;;4973930;28;20168;-72
2023/10/29 05:42:47;;;;;;;7.27;2.27;;;14.30;99.90;;;;;;4973731;28;20199;-72
2023/10/29 05:45:13;;;;;;;6.77;1.97;;;14.30;99.90;;;;;;4973976;28;20628;-71
2023/10/29 05:47:39;;;;;;;4.83;1.80;;;14.20;99.90;;;;;;4974022;28;20218;-72
2023/10/29 05:50:06;;;;;;;7.23;1.70;;;14.20;99.90;;;;;;4973454;28;20671;-72
2023/10/29 05:52:32;;;;;;;6.90;2.00;;;14.20;99.90;;;;;;4976805;28;20207;-72
2023/10/29 05:55:00;;;;;;;6.70;1.90;;;14.10;99.90;;;;;;4976632;28;20262;-71
2023/10/29 05:57:26;;;;;;;9.73;2.10;;;14.10;99.90;;;;;;4977389;28;20178;-71
2023/10/29 05:59:52;;;;;;;8.23;1.90;;;14.10;99.90;;;;;;4977367;28;20172;-72
2023/10/29 06:02:17;;;;;;;8.53;1.97;;;14.10;99.90;;;;;;4977590;28;20176;-72
2023/10/29 06:04:43;;;;;;;6.33;1.90;;;14.10;99.90;;;;;;4977409;28;20156;-72
2023/10/29 06:07:09;;;;;;;9.00;2.00;;;14.00;99.90;;;;;;4976947;28;20577;-71
2023/10/29 06:09:34;;;;;;;9.60;2.13;;;14.00;99.90;;;;;;4977328;28;20235;-71
2023/10/29 06:12:01;;;;;;;7.17;2.00;;;13.90;99.90;;;;;;4977305;28;20179;-71
2023/10/29 06:14:26;;;;;;;6.63;1.80;;;13.80;99.90;;;;;;4976031;28;20192;-71
2023/10/29 06:16:56;;;;;;;7.53;1.80;;;13.80;99.90;;;;;;4977286;28;20172;-71
2023/10/29 06:19:25;;;;;;;7.63;1.93;;;13.80;99.90;;;;;;4976924;28;20246;-71
2023/10/29 06:21:51;;;;;;;9.27;2.67;;;13.80;99.90;;;;;;4976853;28;20178;-72
2023/10/29 06:24:17;;;;;;;7.67;2.20;;;13.70;99.90;;;;;;4977003;28;20227;-72
2023/10/29 06:26:43;;;;;;;10.93;2.10;;;13.80;99.90;;;;;;4976997;28;20187;-72
2023/10/29 06:29:08;;;;;;;9.60;2.13;;;13.70;99.90;;;;;;4977223;28;20176;-72
2023/10/29 06:31:34;;;;;;;9.87;2.07;;;13.60;99.90;;;;;;4977194;28;20188;-71
2023/10/29 06:34:01;;;;;;;5.97;2.10;;;13.60;99.90;;;;;;4976784;28;20211;-71
2023/10/29 06:36:27;;;;;;;7.50;2.13;;;13.60;99.90;;;;;;4976742;28;20173;-71
2023/10/29 06:38:53;;;;;;;7.77;2.10;;;13.70;99.90;;;;;;4976727;28;20176;-72
2023/10/29 06:41:19;;;;;;;8.73;2.00;;;13.60;99.90;;;;;;4976767;28;20172;-72
2023/10/29 06:43:44;;;;;;;9.23;2.03;;;13.60;99.90;;;;;;4976910;28;20655;-71
2023/10/29 06:46:10;;;;;;;10.73;2.57;;;13.60;99.90;;;;;;4976573;28;20176;-71
2023/10/29 06:48:41;;;;;;;9.93;2.47;;;13.50;99.90;;;;;;4976833;28;20178;-71
2023/10/29 06:51:08;;;;;;;10.37;2.00;;;13.50;99.90;;;;;;4974515;28;20194;-71
2023/10/29 06:53:33;;;;;;;5.17;2.20;;;13.50;99.90;;;;;;4976666;28;20198;-72
2023/10/29 06:56:03;;;;;;;6.57;2.10;;;13.50;99.90;;;;;;4976143;28;20251;-71
2023/10/29 06:58:28;;;;;;;7.13;2.17;;;13.60;99.90;;;;;;4976508;28;20176;-71
2023/10/29 07:00:54;;;;;;;5.77;2.07;;;13.60;99.90;;;;;;4976310;28;20690;-72
2023/10/29 07:03:20;;;;;;;6.27;2.00;;;13.50;99.90;;;;;;4976080;28;20180;-72
2023/10/29 07:05:45;;;;;;;5.97;1.73;;;13.60;99.90;;;;;;4975760;28;20199;-70
2023/10/29 07:08:11;;;;;;;7.27;2.30;;;13.80;99.90;;;;;;4976483;28;20172;-71
2023/10/29 07:10:37;;;;;;;5.67;1.90;;;14.20;99.90;;;;;;4976215;28;20523;-72
2023/10/29 07:13:02;;;;;;;10.37;1.93;;;14.80;99.90;;;;;;4975708;28;20235;-71
2023/10/29 07:15:28;;;;;;;7.77;2.00;;;15.50;99.90;;;;;;4976245;28;20255;-71
2023/10/29 07:17:54;;;;;;;7.70;2.20;;;16.10;99.90;;;;;;4976130;28;20176;-71
2023/10/29 07:20:20;;;;;;;4.93;1.70;;;16.50;99.90;;;;;;4975493;28;20230;-71
2023/10/29 07:22:46;;;;;;;8.33;2.23;;;16.80;99.90;;;;;;4975876;28;20168;-72
2023/10/29 07:25:12;;;;;;;6.05;2.00;;;17.30;99.90;;;;;;4975883;28;20554;-73
2023/10/29 07:27:38;;;;;;;4.95;1.80;;;17.80;99.90;;;;;;4975822;28;20202;-73
2023/10/29 07:30:04;;;;;;;5.90;2.42;;;17.90;99.90;;;;;;4975911;28;20176;-73
2023/10/29 07:32:30;;;;;;;7.80;2.20;;;18.70;99.90;;;;;;4974831;28;20208;-74
2023/10/29 07:34:56;;;;;;;7.90;2.35;;;18.70;99.90;;;;;;4975475;28;20541;-73
2023/10/29 07:37:21;;;;;;;5.10;1.90;;;19.10;99.90;;;;;;4975964;28;20627;-74
2023/10/29 07:39:47;;;;;;;6.07;2.03;;;19.20;99.90;;;;;;4975827;28;20172;-75
2023/10/29 07:42:13;;;;;;;8.10;2.28;;;19.10;99.90;;;;;;4975354;28;20240;-75
2023/10/29 07:44:38;;;;;;;10.07;2.60;;;19.10;99.90;;;;;;4975227;28;20524;-74
2023/10/29 07:47:08;;;;;;;7.45;2.10;;;19.50;99.90;;;;;;4975459;28;20179;-75
2023/10/29 07:49:37;;;;;;;7.47;2.25;;;19.20;99.90;;;;;;4975007;28;20570;-74
2023/10/29 07:52:04;;;;;;;6.55;2.33;;;19.20;99.90;;;;;;4975586;28;20171;-75
2023/10/29 07:54:29;;;;;;;4.72;2.42;;;19.40;99.90;;;;;;4975481;28;20187;-75
2023/10/29 07:56:55;;;;;;;7.40;2.38;;;19.60;99.90;;;;;;4975250;28;20172;-75
2023/10/29 07:59:21;;;;;;;3.83;1.80;;;20.20;99.40;;;;;;4974117;28;20216;-75
2023/10/29 08:01:46;;;;;;;7.07;2.15;;;19.80;99.20;;;;;;4974838;28;20628;-75
2023/10/29 08:04:12;;;;;;;4.53;1.70;;;20.10;99.60;;;;;;4975009;28;20255;-74
2023/10/29 08:06:38;;;;;;;8.13;2.30;;;19.50;99.90;;;;;;4975337;28;20176;-74
2023/10/29 08:09:03;;;;;;;6.40;2.00;;;19.70;99.90;;;;;;4975236;28;20628;-75
2023/10/29 08:11:29;;;;;;;5.05;1.92;;;19.90;99.90;;;;;;4973491;28;20239;-74
2023/10/29 08:13:56;;;;;;;6.22;2.22;;;19.90;99.90;;;;;;4974080;28;20743;-74
2023/10/29 08:16:22;;;;;;;6.20;2.05;;;20.10;99.90;;;;;;4975033;28;20179;-74
2023/10/29 08:18:48;;;;;;;8.07;2.17;;;20.20;99.10;;;;;;4974806;28;20183;-75
2023/10/29 08:21:15;;;;;;;7.75;2.38;;;20.00;99.60;;;;;;4974569;28;20172;-75
2023/10/29 08:23:40;;;;;;;4.93;2.35;;;20.10;99.10;;;;;;4974752;28;20176;-74
2023/10/29 08:26:06;;;;;;;5.07;2.03;;;19.90;99.70;;;;;;4974906;28;20513;-74
2023/10/29 08:28:32;;;;;;;4.82;1.90;;;19.70;99.90;;;;;;4973561;28;20176;-74
2023/10/29 08:30:58;;;;;;;10.18;2.28;;;19.50;99.90;;;;;;4974813;28;20168;-73
2023/10/29 08:33:23;;;;;;;7.45;2.53;;;18.90;99.90;;;;;;4974292;28;20266;-72
2023/10/29 08:35:49;;;;;;;8.50;2.45;;;17.90;99.90;;;;;;4974639;28;20203;-73
2023/10/29 08:38:15;;;;;;;7.85;2.33;;;17.30;99.90;;;;;;4974638;28;20179;-73
2023/10/29 08:40:40;;;;;;;10.27;2.37;;;16.80;99.90;;;;;;4972963;28;20187;-74
2023/10/29 08:43:06;;;;;;;7.83;2.20;;;16.60;99.90;;;;;;4974444;28;20178;-72
2023/10/29 08:45:33;;;;;;;7.63;2.20;;;16.30;99.90;;;;;;4974556;28;20533;-73
2023/10/29 08:47:59;;;;;;;8.67;2.53;;;16.40;99.90;;;;;;4974282;28;20180;-74
2023/10/29 08:50:24;;;;;;;11.17;2.60;;;16.70;99.90;;;;;;4974060;28;20726;-74
2023/10/29 08:52:50;;;;;;;6.72;2.13;;;17.30;99.90;;;;;;4974468;28;20212;-73
2023/10/29 08:55:16;;;;;;;7.80;2.47;;;17.80;99.90;;;;;;4974598;28;20183;-74
2023/10/29 08:57:41;;;;;;;9.40;2.60;;;18.50;99.90;;;;;;4973956;28;20234;-74
2023/10/29 09:00:07;;;;;;;6.57;2.10;;;19.30;99.90;;;;;;4974424;28;20172;-75
2023/10/29 09:02:33;;;;;;;7.05;2.25;;;19.50;99.90;;;;;;4973826;28;20179;-74
2023/10/29 09:04:59;;;;;;;10.73;2.28;;;18.70;99.90;;;;;;4973821;28;20180;-74
2023/10/29 09:07:25;;;;;;;5.25;2.03;;;18.90;99.90;;;;;;4973990;28;20247;-75
2023/10/29 09:09:52;;;;;;;9.32;2.47;;;19.40;99.90;;;;;;4974008;28;20222;-74
2023/10/29 09:12:18;;;;;;;9.85;2.42;;;19.10;99.90;;;;;;4974055;28;20176;-74
2023/10/29 09:14:43;;;;;;;9.85;2.20;;;18.80;99.90;;;;;;4973819;28;20186;-74
2023/10/29 09:17:10;;;;;;;5.97;2.05;;;18.20;99.90;;;;;;4973476;28;20199;-74
2023/10/29 09:19:35;;;;;;;12.95;2.60;;;17.90;99.90;;;;;;4974066;28;20227;-74
2023/10/29 09:22:01;;;;;;;17.10;3.22;;;17.50;99.90;;;;;;4974211;28;20172;-74
2023/10/29 09:24:27;;;;;;;11.57;2.42;;;17.30;99.90;;;;;;4972533;28;20583;-74
2023/10/29 09:26:53;;;;;;;9.63;2.30;;;17.00;99.90;;;;;;4976272;28;20180;-73
2023/10/29 09:29:20;;;;;;;8.82;2.47;;;16.80;99.90;;;;;;4977896;28;20163;-71
2023/10/29 09:31:46;;;;;;;9.40;2.40;;;16.70;99.90;;;;;;4977009;28;20215;-73
2023/10/29 09:34:11;;;;;;;7.15;2.35;;;16.70;99.90;;;;;;4977992;28;20239;-73
2023/10/29 09:36:38;;;;;;;7.67;2.33;;;16.70;99.90;;;;;;4978207;28;20180;-72
2023/10/29 09:39:05;;;;;;;9.33;2.30;;;16.40;99.90;;;;;;4977746;28;20597;-73
2023/10/29 09:41:32;;;;;;;9.17;2.50;;;16.20;99.90;;;;;;4976073;28;20179;-72
2023/10/29 09:43:58;;;;;;;7.97;2.53;;;16.10;99.90;;;;;;4976474;28;20180;-72
2023/10/29 09:46:24;;;;;;;8.87;2.60;;;16.00;99.90;;;;;;4977683;28;20215;-73
2023/10/29 09:48:51;;;;;;;9.63;2.57;;;15.80;99.90;;;;;;4977460;28;20286;-72
2023/10/29 09:51:19;;;;;;;8.60;2.60;;;15.70;99.90;;;;;;4977368;28;20200;-72
2023/10/29 09:53:46;;;;;;;8.30;2.40;;;15.70;99.90;;;;;;4977783;28;20567;-73
2023/10/29 09:56:14;;;;;;;7.23;2.40;;;16.00;99.90;;;;;;4977486;28;20206;-72
2023/10/29 09:58:40;;;;;;;10.80;2.40;;;16.40;99.90;;;;;;4976844;28;20616;-73
2023/10/29 10:01:05;;;;;;;9.07;2.47;;;16.80;99.90;;;;;;4977133;28;20246;-73
2023/10/29 10:03:31;;;;;;;9.70;2.92;;;17.20;99.90;;;;;;4975709;28;20180;-74
2023/10/29 10:05:58;;;;;;;7.55;2.63;;;17.60;99.90;;;;;;4977040;28;20546;-73
2023/10/29 10:08:28;;;;;;;9.10;2.70;;;18.00;99.90;;;;;;4976944;28;20176;-73
2023/10/29 10:10:55;;;;;;;9.80;3.00;;;18.10;99.90;;;;;;4977307;28;20666;-73
2023/10/29 10:13:41;;;;;;;8.10;2.65;;;18.00;99.90;;;;;;4976362;28;20212;-73
2023/10/29 10:16:11;;;;;;;6.60;2.17;;;17.70;99.90;;;;;;4977070;28;20315;-73
2023/10/29 10:18:57;;;;;;;8.33;2.37;;;16.90;99.90;;;;;;4977035;28;20255;-73
2023/10/29 10:21:40;;;;;;;11.23;2.97;;;16.40;99.90;;;;;;4977039;28;20171;-73
2023/10/29 10:24:06;;;;;;;11.07;2.53;;;16.20;99.90;;;;;;4976920;28;20231;-73
2023/10/29 10:26:34;;;;;;;8.40;2.23;;;15.90;99.90;;;;;;4976537;28;20270;-72
2023/10/29 10:29:01;;;;;;;8.17;2.40;;;15.70;99.90;;;;;;4976577;28;20303;-73
2023/10/29 10:31:28;;;;;;;6.47;2.70;;;15.60;99.90;;;;;;4976839;28;20183;-73
2023/10/29 10:34:11;;;;;;;8.23;2.70;;;15.60;99.90;;;;;;4976165;28;20230;-75
2023/10/29 10:36:37;;;;;;;9.53;2.40;;;15.50;99.90;;;;;;4976498;28;20169;-71
2023/10/29 10:39:03;;;;;;;13.43;2.93;;;15.50;99.90;;;;;;4976275;28;20172;-73
2023/10/29 10:41:48;;;;;;;9.60;2.40;;;15.30;99.90;;;;;;4976991;28;20643;-73
2023/10/29 10:44:15;;;;;;;8.10;2.57;;;15.40;99.90;;;;;;4976257;28;20262;-73
2023/10/29 10:46:49;;;;;;;6.33;2.40;;;15.40;99.90;;;;;;4975395;28;20172;-73
2023/10/29 10:49:15;;;;;;;12.13;2.60;;;15.50;99.90;;;;;;4974923;28;20172;-73
2023/10/29 10:51:41;;;;;;;7.97;2.27;;;15.50;99.90;;;;;;4975657;28;20575;-74
2023/10/29 10:54:07;;;;;;;7.70;2.10;;;15.50;99.90;;;;;;4975014;28;20287;-73
2023/10/29 10:56:37;;;;;;;10.40;2.60;;;15.60;99.90;;;;;;4976334;28;20644;-73
2023/10/29 10:59:07;;;;;;;11.43;2.87;;;15.70;99.90;;;;;;4976265;28;20207;-73
2023/10/29 11:01:39;;;;;;;11.07;2.60;;;15.80;99.90;;;;;;4976060;28;20172;-73
2023/10/29 11:04:08;;;;;;;8.43;2.20;;;15.90;99.90;;;;;;4974714;28;20175;-74
2023/10/29 11:06:38;;;;;;;8.33;2.60;;;16.20;99.90;;;;;;4975841;28;20179;-75
2023/10/29 11:09:13;;;;;;;9.55;2.30;;;16.90;99.90;;;;;;4975701;28;20663;-74
2023/10/29 11:11:55;;;;;;;7.60;2.53;;;17.40;99.90;;;;;;4975838;28;20168;-75
2023/10/29 11:14:22;;;;;;;6.50;2.40;;;18.20;99.90;;;;;;4976052;28;20204;-73
2023/10/29 11:16:49;;;;;;;9.73;2.25;;;18.30;99.90;;;;;;4976036;28;20187;-74
2023/10/29 11:19:33;;;;;;;8.98;2.65;;;18.30;99.90;;;;;;4975518;28;20186;-74
2023/10/29 11:22:19;;;;;;;5.38;2.00;;;17.80;99.90;;;;;;4976224;28;20223;-74
2023/10/29 11:25:11;;;;;;;8.05;2.50;;;17.50;99.90;;;;;;4975935;28;20231;-73
2023/10/29 11:27:48;;;;;;;7.28;2.33;;;17.60;99.90;;;;;;4974743;28;20625;-73
2023/10/29 11:30:21;;;;;;;7.30;2.55;;;17.60;99.90;;;;;;4976096;28;20172;-74
2023/10/29 11:33:10;;;;;;;10.82;2.70;;;17.60;99.90;;;;;;4976075;28;20195;-74
2023/10/29 11:35:37;;;;;;;10.70;2.70;;;17.50;99.90;;;;;;4976002;28;20707;-74
2023/10/29 11:38:30;;;;;;;10.55;2.85;;;17.20;99.90;;;;;;4973610;28;20172;-75
2023/10/29 11:40:59;;;;;;;5.50;2.17;;;17.00;99.90;;;;;;4973854;28;20187;-72
2023/10/29 11:43:25;;;;;;;8.20;2.60;;;16.80;99.90;;;;;;4975961;28;20179;-73
2023/10/29 11:45:59;;;;;;;6.27;2.03;;;16.80;99.90;;;;;;4975801;28;20231;-74
2023/10/29 11:48:25;;;;;;;9.33;2.87;;;16.70;99.90;;;;;;4974139;28;20186;-73
2023/10/29 11:51:03;;;;;;;6.13;2.08;;;16.60;99.90;;;;;;4973544;28;20676;-73
2023/10/29 11:53:29;;;;;;;7.73;2.50;;;16.70;99.90;;;;;;4975206;28;20215;-73
2023/10/29 11:55:59;;;;;;;8.67;2.57;;;16.80;99.90;;;;;;4975102;28;20180;-73
2023/10/29 11:58:26;;;;;;;7.17;2.50;;;16.80;99.90;;;;;;4975652;28;20168;-74
2023/10/29 12:00:53;;;;;;;8.17;2.40;;;16.90;99.90;;;;;;4974994;28;20160;-74
2023/10/29 12:03:22;;;;;;;8.30;2.10;;;16.70;99.90;;;;;;4974470;28;20184;-73
2023/10/29 12:05:54;;;;;;;8.00;2.70;;;16.50;99.90;;;;;;4975554;28;20242;-74
2023/10/29 12:08:20;;;;;;;8.23;2.30;;;16.60;99.90;;;;;;4975099;28;20218;-73
2023/10/29 12:10:50;;;;;;;6.67;2.17;;;16.60;99.90;;;;;;4974800;28;20616;-74
2023/10/29 12:13:20;;;;;;;6.63;2.30;;;16.60;99.90;;;;;;4973989;28;20199;-75
2023/10/29 12:16:07;;;;;;;10.10;2.60;;;16.60;99.90;;;;;;4974948;28;20251;-74
2023/10/29 12:18:33;;;;;;;7.30;2.63;;;16.70;99.90;;;;;;4973082;28;20199;-73
2023/10/29 12:21:09;;;;;;;7.70;2.97;;;16.80;99.90;;;;;;4975001;28;20210;-73
2023/10/29 12:23:36;;;;;;;6.90;2.50;;;16.80;99.90;;;;;;4973171;28;20176;-74
2023/10/29 12:26:07;;;;;;;11.37;2.70;;;16.60;99.90;;;;;;4973025;28;20263;-73
2023/10/29 12:28:36;;;;;;;8.90;2.80;;;16.40;99.90;;;;;;4974810;28;20202;-72
2023/10/29 12:31:03;;;;;;;9.00;2.50;;;16.20;99.90;;;;;;4974667;28;20203;-73
2023/10/29 12:33:33;;;;;;;8.53;2.70;;;15.80;99.90;;;;;;4974787;28;20264;-72
2023/10/29 12:35:59;;;;;;;11.53;2.80;;;15.40;99.90;;;;;;4974484;28;20227;-73
2023/10/29 12:38:26;;;;;;;8.53;2.67;;;15.20;99.90;;;;;;4973794;28;20176;-72
2023/10/29 12:41:06;;;;;;;12.63;2.70;;;15.00;99.90;;;;;;4974597;28;20200;-74
2023/10/29 12:43:36;;;;;;;8.20;2.80;;;14.90;99.90;;;;;;4975090;28;20260;-73
2023/10/29 12:46:03;;;;;;;8.67;2.73;;;14.90;99.90;;;;;;4974675;28;20256;-73